sensor_id;sensor_type;location;lat;lon;timestamp;temperature;humidity
4596;DHT22;2310;49.978;8.742;2023-05-02T00:03:33;16.20;99.90
4596;DHT22;2310;49.978;8.742;2023-05-02T00:07:35;16.00;99.90
4596;DHT22;2310;49.978;8.742;2023-05-02T00:11:37;16.00;99.90
4596;DHT22;2310;49.978;8.742;2023-05-02T00:15:38;15.90;99.90
4596;DHT22;2310;49.978;8.742;2023-05-02T00:19:39;15.90;99.90
4596;DHT22;2310;49.978;8.742;2023-05-02T00:23:40;15.90;99.90
4596;DHT22;2310;49.978;8.742;2023-05-02T00:27:42;15.90;99.90
4596;DHT22;2310;49.978;8.742;2023-05-02T00:31:46;16.00;99.90
4596;DHT22;2310;49.978;8.742;2023-05-02T00:35:47;15.80;99.90
4596;DHT22;2310;49.978;8.742;2023-05-02T00:39:48;15.60;99.90
4596;DHT22;2310;49.978;8.742;2023-05-02T00:43:49;15.50;99.90
4596;DHT22;2310;49.978;8.742;2023-05-02T00:47:50;15.50;99.90
4596;DHT22;2310;49.978;8.742;2023-05-02T00:51:53;15.50;99.90
4596;DHT22;2310;49.978;8.742;2023-05-02T00:55:54;15.40;99.90
4596;DHT22;2310;49.978;8.742;2023-05-02T00:59:55;15.50;99.90
4596;DHT22;2310;49.978;8.742;2023-05-02T01:08:09;15.50;99.90
4596;DHT22;2310;49.978;8.742;2023-05-02T01:16:32;15.20;99.90
4596;DHT22;2310;49.978;8.742;2023-05-02T01:20:40;15.10;99.90
4596;DHT22;2310;49.978;8.742;2023-05-02T01:28:58;14.90;99.90
4596;DHT22;2310;49.978;8.742;2023-05-02T01:33:01;14.80;99.90
4596;DHT22;2310;49.978;8.742;2023-05-02T01:37:04;14.80;99.90
4596;DHT22;2310;49.978;8.742;2023-05-02T01:41:07;14.70;99.90
4596;DHT22;2310;49.978;8.742;2023-05-02T01:45:10;14.70;99.90
4596;DHT22;2310;49.978;8.742;2023-05-02T01:49:12;14.70;99.90
4596;DHT22;2310;49.978;8.742;2023-05-02T01:53:14;14.60;99.90
4596;DHT22;2310;49.978;8.742;2023-05-02T01:57:15;14.40;99.90
4596;DHT22;2310;49.978;8.742;2023-05-02T02:01:18;14.30;99.90
4596;DHT22;2310;49.978;8.742;2023-05-02T02:05:21;14.40;99.90
4596;DHT22;2310;49.978;8.742;2023-05-02T02:09:22;14.30;99.90
4596;DHT22;2310;49.978;8.742;2023-05-02T02:13:36;14.20;99.90
4596;DHT22;2310;49.978;8.742;2023-05-02T02:17:50;14.10;99.90
4596;DHT22;2310;49.978;8.742;2023-05-02T02:21:54;14.10;99.90
4596;DHT22;2310;49.978;8.742;2023-05-02T02:25:55;14.10;99.90
4596;DHT22;2310;49.978;8.742;2023-05-02T02:29:57;13.90;99.90
4596;DHT22;2310;49.978;8.742;2023-05-02T02:33:59;13.70;99.90
4596;DHT22;2310;49.978;8.742;2023-05-02T02:46:45;13.70;99.90
4596;DHT22;2310;49.978;8.742;2023-05-02T02:55:07;13.60;99.90
4596;DHT22;2310;49.978;8.742;2023-05-02T02:59:27;13.50;99.90
4596;DHT22;2310;49.978;8.742;2023-05-02T03:03:31;13.30;99.90
4596;DHT22;2310;49.978;8.742;2023-05-02T03:07:32;13.10;99.90
4596;DHT22;2310;49.978;8.742;2023-05-02T03:11:34;13.00;99.90
4596;DHT22;2310;49.978;8.742;2023-05-02T03:19:57;13.10;99.90
4596;DHT22;2310;49.978;8.742;2023-05-02T03:24:00;13.10;99.90
4596;DHT22;2310;49.978;8.742;2023-05-02T03:28:02;13.30;99.90
4596;DHT22;2310;49.978;8.742;2023-05-02T03:32:03;13.20;99.90
4596;DHT22;2310;49.978;8.742;2023-05-02T03:36:05;13.10;99.90
4596;DHT22;2310;49.978;8.742;2023-05-02T03:40:07;13.30;99.90
4596;DHT22;2310;49.978;8.742;2023-05-02T03:44:08;13.40;99.90
4596;DHT22;2310;49.978;8.742;2023-05-02T03:48:10;13.30;99.90
4596;DHT22;2310;49.978;8.742;2023-05-02T03:52:11;13.40;99.90
4596;DHT22;2310;49.978;8.742;2023-05-02T03:56:17;13.40;99.90
4596;DHT22;2310;49.978;8.742;2023-05-02T04:00:22;13.40;99.90
4596;DHT22;2310;49.978;8.742;2023-05-02T04:04:23;13.50;99.90
4596;DHT22;2310;49.978;8.742;2023-05-02T04:08:25;13.40;99.90
4596;DHT22;2310;49.978;8.742;2023-05-02T04:12:26;13.10;99.90
4596;DHT22;2310;49.978;8.742;2023-05-02T04:16:27;13.30;99.90
4596;DHT22;2310;49.978;8.742;2023-05-02T04:20:29;13.20;99.90
4596;DHT22;2310;49.978;8.742;2023-05-02T04:24:30;13.30;99.90
4596;DHT22;2310;49.978;8.742;2023-05-02T04:28:31;13.50;99.90
4596;DHT22;2310;49.978;8.742;2023-05-02T04:32:32;13.50;99.90
4596;DHT22;2310;49.978;8.742;2023-05-02T04:36:34;13.60;99.90
4596;DHT22;2310;49.978;8.742;2023-05-02T04:40:35;13.60;99.90
4596;DHT22;2310;49.978;8.742;2023-05-02T04:44:36;13.60;99.90
4596;DHT22;2310;49.978;8.742;2023-05-02T04:48:37;13.70;99.90
4596;DHT22;2310;49.978;8.742;2023-05-02T04:52:40;13.80;99.90
4596;DHT22;2310;49.978;8.742;2023-05-02T04:56:42;13.90;99.90
4596;DHT22;2310;49.978;8.742;2023-05-02T05:00:44;13.90;99.90
4596;DHT22;2310;49.978;8.742;2023-05-02T05:04:45;13.90;99.90
4596;DHT22;2310;49.978;8.742;2023-05-02T05:08:46;13.90;99.90
4596;DHT22;2310;49.978;8.742;2023-05-02T05:12:47;14.00;99.90
4596;DHT22;2310;49.978;8.742;2023-05-02T05:16:49;14.20;99.90
4596;DHT22;2310;49.978;8.742;2023-05-02T05:20:50;14.20;99.90
4596;DHT22;2310;49.978;8.742;2023-05-02T05:24:53;14.40;99.90
4596;DHT22;2310;49.978;8.742;2023-05-02T05:28:55;14.30;99.90
4596;DHT22;2310;49.978;8.742;2023-05-02T05:32:56;14.50;99.90
4596;DHT22;2310;49.978;8.742;2023-05-02T05:36:59;14.50;99.90
4596;DHT22;2310;49.978;8.742;2023-05-02T05:41:01;14.60;99.90
4596;DHT22;2310;49.978;8.742;2023-05-02T05:45:02;14.80;99.90
4596;DHT22;2310;49.978;8.742;2023-05-02T05:49:03;14.80;99.90
4596;DHT22;2310;49.978;8.742;2023-05-02T05:53:05;14.80;99.90
4596;DHT22;2310;49.978;8.742;2023-05-02T05:57:06;15.00;99.90
4596;DHT22;2310;49.978;8.742;2023-05-02T06:01:09;15.30;99.90
4596;DHT22;2310;49.978;8.742;2023-05-02T06:05:10;15.30;99.90
4596;DHT22;2310;49.978;8.742;2023-05-02T06:09:11;15.40;99.90
4596;DHT22;2310;49.978;8.742;2023-05-02T06:13:12;15.70;99.90
4596;DHT22;2310;49.978;8.742;2023-05-02T06:17:14;15.70;99.90
4596;DHT22;2310;49.978;8.742;2023-05-02T06:21:15;15.90;99.90
4596;DHT22;2310;49.978;8.742;2023-05-02T06:25:16;15.70;99.90
4596;DHT22;2310;49.978;8.742;2023-05-02T06:29:17;15.90;99.90
4596;DHT22;2310;49.978;8.742;2023-05-02T06:33:18;16.00;99.90
4596;DHT22;2310;49.978;8.742;2023-05-02T06:37:20;16.40;99.90
4596;DHT22;2310;49.978;8.742;2023-05-02T06:41:21;16.40;99.90
4596;DHT22;2310;49.978;8.742;2023-05-02T06:45:23;16.40;99.90
4596;DHT22;2310;49.978;8.742;2023-05-02T06:49:25;16.60;99.90
4596;DHT22;2310;49.978;8.742;2023-05-02T06:53:26;16.70;99.90
4596;DHT22;2310;49.978;8.742;2023-05-02T06:57:27;16.90;99.90
4596;DHT22;2310;49.978;8.742;2023-05-02T07:01:29;16.80;99.90
4596;DHT22;2310;49.978;8.742;2023-05-02T07:05:30;16.80;99.90
4596;DHT22;2310;49.978;8.742;2023-05-02T07:09:31;16.80;99.90
4596;DHT22;2310;49.978;8.742;2023-05-02T07:13:32;16.80;99.90
4596;DHT22;2310;49.978;8.742;2023-05-02T07:17:33;16.80;99.90
4596;DHT22;2310;49.978;8.742;2023-05-02T07:21:35;16.70;99.90
4596;DHT22;2310;49.978;8.742;2023-05-02T07:25:36;16.80;99.90
4596;DHT22;2310;49.978;8.742;2023-05-02T07:29:37;16.90;99.90
4596;DHT22;2310;49.978;8.742;2023-05-02T07:33:39;17.00;99.90
4596;DHT22;2310;49.978;8.742;2023-05-02T07:37:40;17.10;99.90
4596;DHT22;2310;49.978;8.742;2023-05-02T07:41:41;17.50;99.90
4596;DHT22;2310;49.978;8.742;2023-05-02T07:45:42;17.30;99.90
4596;DHT22;2310;49.978;8.742;2023-05-02T07:49:43;17.80;99.90
4596;DHT22;2310;49.978;8.742;2023-05-02T07:53:44;17.70;99.90
4596;DHT22;2310;49.978;8.742;2023-05-02T07:57:46;18.00;99.90
4596;DHT22;2310;49.978;8.742;2023-05-02T08:01:47;18.30;99.90
4596;DHT22;2310;49.978;8.742;2023-05-02T08:05:48;18.20;99.90
4596;DHT22;2310;49.978;8.742;2023-05-02T08:09:49;18.40;99.90
4596;DHT22;2310;49.978;8.742;2023-05-02T08:13:51;18.20;99.90
4596;DHT22;2310;49.978;8.742;2023-05-02T08:17:52;18.40;99.90
4596;DHT22;2310;49.978;8.742;2023-05-02T08:21:54;19.00;99.90
4596;DHT22;2310;49.978;8.742;2023-05-02T08:25:55;19.10;99.90
4596;DHT22;2310;49.978;8.742;2023-05-02T08:29:57;18.90;99.90
4596;DHT22;2310;49.978;8.742;2023-05-02T08:33:59;18.40;99.90
4596;DHT22;2310;49.978;8.742;2023-05-02T08:38:03;17.70;99.90
4596;DHT22;2310;49.978;8.742;2023-05-02T08:42:07;17.40;99.90
4596;DHT22;2310;49.978;8.742;2023-05-02T08:46:10;17.20;99.90
4596;DHT22;2310;49.978;8.742;2023-05-02T08:50:12;17.30;99.90
4596;DHT22;2310;49.978;8.742;2023-05-02T08:54:15;17.40;99.90
4596;DHT22;2310;49.978;8.742;2023-05-02T08:58:16;17.20;99.90
4596;DHT22;2310;49.978;8.742;2023-05-02T09:06:32;16.70;99.90
4596;DHT22;2310;49.978;8.742;2023-05-02T09:10:34;16.40;99.90
4596;DHT22;2310;49.978;8.742;2023-05-02T09:14:38;16.20;99.90
4596;DHT22;2310;49.978;8.742;2023-05-02T09:18:47;16.20;99.90
4596;DHT22;2310;49.978;8.742;2023-05-02T09:22:50;16.20;99.90
4596;DHT22;2310;49.978;8.742;2023-05-02T09:27:00;16.40;99.90
4596;DHT22;2310;49.978;8.742;2023-05-02T09:31:16;16.60;99.90
4596;DHT22;2310;49.978;8.742;2023-05-02T09:35:17;16.80;99.90
4596;DHT22;2310;49.978;8.742;2023-05-02T09:39:25;17.20;99.90
4596;DHT22;2310;49.978;8.742;2023-05-02T09:43:30;17.40;99.90
4596;DHT22;2310;49.978;8.742;2023-05-02T09:47:31;17.50;99.90
4596;DHT22;2310;49.978;8.742;2023-05-02T09:51:32;17.70;99.90
4596;DHT22;2310;49.978;8.742;2023-05-02T09:55:34;17.50;99.90
4596;DHT22;2310;49.978;8.742;2023-05-02T09:59:35;17.30;99.90
4596;DHT22;2310;49.978;8.742;2023-05-02T10:03:39;17.50;99.90
4596;DHT22;2310;49.978;8.742;2023-05-02T10:07:41;17.80;99.90
4596;DHT22;2310;49.978;8.742;2023-05-02T10:11:43;17.90;99.90
4596;DHT22;2310;49.978;8.742;2023-05-02T10:15:48;18.10;99.90
4596;DHT22;2310;49.978;8.742;2023-05-02T10:20:04;18.40;99.90
4596;DHT22;2310;49.978;8.742;2023-05-02T10:24:06;18.90;97.30
4596;DHT22;2310;49.978;8.742;2023-05-02T10:28:09;19.60;95.60
4596;DHT22;2310;49.978;8.742;2023-05-02T10:32:10;19.80;94.50
4596;DHT22;2310;49.978;8.742;2023-05-02T10:36:14;20.60;90.50
4596;DHT22;2310;49.978;8.742;2023-05-02T10:40:15;20.60;83.50
4596;DHT22;2310;49.978;8.742;2023-05-02T10:44:17;20.50;76.60
4596;DHT22;2310;49.978;8.742;2023-05-02T10:48:24;20.20;79.50
4596;DHT22;2310;49.978;8.742;2023-05-02T10:52:31;20.20;84.80
4596;DHT22;2310;49.978;8.742;2023-05-02T10:56:34;20.80;85.60
4596;DHT22;2310;49.978;8.742;2023-05-02T11:00:35;21.20;84.90
4596;DHT22;2310;49.978;8.742;2023-05-02T11:13:49;23.10;71.20
4596;DHT22;2310;49.978;8.742;2023-05-02T11:26:25;23.90;59.50
4596;DHT22;2310;49.978;8.742;2023-05-02T11:30:42;23.40;59.70
4596;DHT22;2310;49.978;8.742;2023-05-02T11:34:44;23.10;61.40
4596;DHT22;2310;49.978;8.742;2023-05-02T11:38:45;22.80;58.70
4596;DHT22;2310;49.978;8.742;2023-05-02T11:42:46;22.20;59.70
4596;DHT22;2310;49.978;8.742;2023-05-02T11:46:51;21.70;61.10
4596;DHT22;2310;49.978;8.742;2023-05-02T11:50:55;20.40;64.40
4596;DHT22;2310;49.978;8.742;2023-05-02T11:54:57;19.80;79.00
4596;DHT22;2310;49.978;8.742;2023-05-02T11:59:00;19.90;81.20
4596;DHT22;2310;49.978;8.742;2023-05-02T12:03:06;21.00;85.80
4596;DHT22;2310;49.978;8.742;2023-05-02T12:07:07;22.00;65.30
4596;DHT22;2310;49.978;8.742;2023-05-02T12:11:13;22.40;66.00
4596;DHT22;2310;49.978;8.742;2023-05-02T12:15:17;22.90;59.50
4596;DHT22;2310;49.978;8.742;2023-05-02T12:19:19;23.50;58.00
4596;DHT22;2310;49.978;8.742;2023-05-02T12:23:23;23.40;56.80
4596;DHT22;2310;49.978;8.742;2023-05-02T12:27:26;23.10;53.00
4596;DHT22;2310;49.978;8.742;2023-05-02T12:31:27;22.10;54.10
4596;DHT22;2310;49.978;8.742;2023-05-02T12:35:31;21.90;54.90
4596;DHT22;2310;49.978;8.742;2023-05-02T12:43:45;21.60;58.30
4596;DHT22;2310;49.978;8.742;2023-05-02T12:47:47;21.00;57.00
4596;DHT22;2310;49.978;8.742;2023-05-02T12:51:54;20.70;60.20
4596;DHT22;2310;49.978;8.742;2023-05-02T12:56:06;20.80;62.10
4596;DHT22;2310;49.978;8.742;2023-05-02T13:00:09;20.90;60.50
4596;DHT22;2310;49.978;8.742;2023-05-02T13:04:12;20.80;60.70
4596;DHT22;2310;49.978;8.742;2023-05-02T13:08:14;21.10;61.90
4596;DHT22;2310;49.978;8.742;2023-05-02T13:12:15;20.20;63.50
4596;DHT22;2310;49.978;8.742;2023-05-02T13:16:16;19.00;88.30
4596;DHT22;2310;49.978;8.742;2023-05-02T13:20:17;18.30;99.90
4596;DHT22;2310;49.978;8.742;2023-05-02T13:24:19;18.10;99.90
4596;DHT22;2310;49.978;8.742;2023-05-02T13:28:20;17.90;99.90
4596;DHT22;2310;49.978;8.742;2023-05-02T13:32:21;18.00;99.90
4596;DHT22;2310;49.978;8.742;2023-05-02T13:36:23;18.10;99.90
4596;DHT22;2310;49.978;8.742;2023-05-02T13:40:24;18.40;99.90
4596;DHT22;2310;49.978;8.742;2023-05-02T13:44:25;19.00;99.90
4596;DHT22;2310;49.978;8.742;2023-05-02T13:48:27;19.30;99.90
4596;DHT22;2310;49.978;8.742;2023-05-02T13:52:28;19.40;99.90
4596;DHT22;2310;49.978;8.742;2023-05-02T13:56:29;19.50;99.90
4596;DHT22;2310;49.978;8.742;2023-05-02T14:00:31;19.70;99.90
4596;DHT22;2310;49.978;8.742;2023-05-02T14:04:32;19.60;99.90
4596;DHT22;2310;49.978;8.742;2023-05-02T14:08:34;19.60;99.90
4596;DHT22;2310;49.978;8.742;2023-05-02T14:12:35;19.40;99.90
4596;DHT22;2310;49.978;8.742;2023-05-02T14:16:37;19.00;99.90
4596;DHT22;2310;49.978;8.742;2023-05-02T14:20:39;18.50;99.90
4596;DHT22;2310;49.978;8.742;2023-05-02T14:24:40;18.60;99.90
4596;DHT22;2310;49.978;8.742;2023-05-02T14:28:41;19.00;99.90
4596;DHT22;2310;49.978;8.742;2023-05-02T14:32:42;19.30;99.90
4596;DHT22;2310;49.978;8.742;2023-05-02T14:36:44;19.30;99.90
4596;DHT22;2310;49.978;8.742;2023-05-02T14:40:47;19.20;99.70
4596;DHT22;2310;49.978;8.742;2023-05-02T14:44:49;19.00;98.70
4596;DHT22;2310;49.978;8.742;2023-05-02T14:48:50;18.80;95.80
4596;DHT22;2310;49.978;8.742;2023-05-02T14:52:51;18.90;98.40
4596;DHT22;2310;49.978;8.742;2023-05-02T14:56:52;19.10;96.60
4596;DHT22;2310;49.978;8.742;2023-05-02T15:00:54;18.90;96.30
4596;DHT22;2310;49.978;8.742;2023-05-02T15:04:55;19.00;99.60
4596;DHT22;2310;49.978;8.742;2023-05-02T15:08:56;18.90;99.60
4596;DHT22;2310;49.978;8.742;2023-05-02T15:12:59;18.80;98.70
4596;DHT22;2310;49.978;8.742;2023-05-02T15:17:00;18.70;96.30
4596;DHT22;2310;49.978;8.742;2023-05-02T15:21:03;18.80;98.00
4596;DHT22;2310;49.978;8.742;2023-05-02T15:25:05;19.20;99.90
4596;DHT22;2310;49.978;8.742;2023-05-02T15:29:12;19.40;99.90
4596;DHT22;2310;49.978;8.742;2023-05-02T15:33:14;19.60;99.90
4596;DHT22;2310;49.978;8.742;2023-05-02T15:37:16;19.60;98.80
4596;DHT22;2310;49.978;8.742;2023-05-02T15:41:18;19.50;94.60
4596;DHT22;2310;49.978;8.742;2023-05-02T15:45:20;19.10;97.60
4596;DHT22;2310;49.978;8.742;2023-05-02T15:49:23;18.70;96.90
4596;DHT22;2310;49.978;8.742;2023-05-02T15:53:30;18.60;91.90
4596;DHT22;2310;49.978;8.742;2023-05-02T15:57:31;18.80;99.20
4596;DHT22;2310;49.978;8.742;2023-05-02T16:01:33;18.80;94.40
4596;DHT22;2310;49.978;8.742;2023-05-02T16:05:34;18.70;93.20
4596;DHT22;2310;49.978;8.742;2023-05-02T16:09:36;18.40;94.90
4596;DHT22;2310;49.978;8.742;2023-05-02T16:13:37;18.20;95.20
4596;DHT22;2310;49.978;8.742;2023-05-02T16:17:40;18.10;96.20
4596;DHT22;2310;49.978;8.742;2023-05-02T16:21:42;18.20;94.10
4596;DHT22;2310;49.978;8.742;2023-05-02T16:25:44;18.30;93.40
4596;DHT22;2310;49.978;8.742;2023-05-02T16:29:45;17.90;95.40
4596;DHT22;2310;49.978;8.742;2023-05-02T16:33:46;18.40;96.20
4596;DHT22;2310;49.978;8.742;2023-05-02T16:37:47;18.70;90.10
4596;DHT22;2310;49.978;8.742;2023-05-02T16:41:49;18.90;97.20
4596;DHT22;2310;49.978;8.742;2023-05-02T16:46:04;18.90;91.90
4596;DHT22;2310;49.978;8.742;2023-05-02T16:50:12;19.00;87.00
4596;DHT22;2310;49.978;8.742;2023-05-02T16:54:13;19.20;87.90
4596;DHT22;2310;49.978;8.742;2023-05-02T16:58:14;19.10;79.70
4596;DHT22;2310;49.978;8.742;2023-05-02T17:02:16;19.00;75.30
4596;DHT22;2310;49.978;8.742;2023-05-02T17:06:18;19.30;78.00
4596;DHT22;2310;49.978;8.742;2023-05-02T17:10:20;19.10;85.10
4596;DHT22;2310;49.978;8.742;2023-05-02T17:14:21;18.90;78.70
4596;DHT22;2310;49.978;8.742;2023-05-02T17:18:22;18.80;80.00
4596;DHT22;2310;49.978;8.742;2023-05-02T17:22:24;18.70;74.50
4596;DHT22;2310;49.978;8.742;2023-05-02T17:26:26;18.50;75.20
4596;DHT22;2310;49.978;8.742;2023-05-02T17:30:27;18.30;73.90
4596;DHT22;2310;49.978;8.742;2023-05-02T17:34:28;18.10;77.00
4596;DHT22;2310;49.978;8.742;2023-05-02T17:38:30;17.80;82.20
4596;DHT22;2310;49.978;8.742;2023-05-02T17:42:31;17.50;92.10
4596;DHT22;2310;49.978;8.742;2023-05-02T17:46:32;17.20;94.80
4596;DHT22;2310;49.978;8.742;2023-05-02T17:50:39;17.20;96.00
4596;DHT22;2310;49.978;8.742;2023-05-02T17:54:40;17.00;99.40
4596;DHT22;2310;49.978;8.742;2023-05-02T17:58:42;17.00;99.90
4596;DHT22;2310;49.978;8.742;2023-05-02T18:02:43;16.60;99.90
4596;DHT22;2310;49.978;8.742;2023-05-02T18:06:45;16.50;99.90
4596;DHT22;2310;49.978;8.742;2023-05-02T18:10:46;16.30;99.90
4596;DHT22;2310;49.978;8.742;2023-05-02T18:14:47;16.10;99.90
4596;DHT22;2310;49.978;8.742;2023-05-02T18:18:49;15.90;99.90
4596;DHT22;2310;49.978;8.742;2023-05-02T18:22:50;15.60;99.90
4596;DHT22;2310;49.978;8.742;2023-05-02T18:26:51;15.40;99.90
4596;DHT22;2310;49.978;8.742;2023-05-02T18:30:53;15.20;99.90
4596;DHT22;2310;49.978;8.742;2023-05-02T18:34:54;15.00;99.90
4596;DHT22;2310;49.978;8.742;2023-05-02T18:38:55;14.80;99.90
4596;DHT22;2310;49.978;8.742;2023-05-02T18:42:56;14.50;99.90
4596;DHT22;2310;49.978;8.742;2023-05-02T18:46:58;14.40;99.90
4596;DHT22;2310;49.978;8.742;2023-05-02T18:50:59;14.30;99.90
4596;DHT22;2310;49.978;8.742;2023-05-02T18:55:01;14.30;99.90
4596;DHT22;2310;49.978;8.742;2023-05-02T18:59:04;14.00;99.90
4596;DHT22;2310;49.978;8.742;2023-05-02T19:03:05;13.90;99.90
4596;DHT22;2310;49.978;8.742;2023-05-02T19:07:07;13.80;99.90
4596;DHT22;2310;49.978;8.742;2023-05-02T19:11:08;13.70;99.90
4596;DHT22;2310;49.978;8.742;2023-05-02T19:15:10;13.80;99.90
4596;DHT22;2310;49.978;8.742;2023-05-02T19:19:11;13.70;99.90
4596;DHT22;2310;49.978;8.742;2023-05-02T19:23:12;13.60;99.90
4596;DHT22;2310;49.978;8.742;2023-05-02T19:27:17;13.60;99.90
4596;DHT22;2310;49.978;8.742;2023-05-02T19:31:19;13.60;99.90
4596;DHT22;2310;49.978;8.742;2023-05-02T19:35:20;13.50;99.90
4596;DHT22;2310;49.978;8.742;2023-05-02T19:39:22;13.50;99.90
4596;DHT22;2310;49.978;8.742;2023-05-02T19:43:23;13.30;99.90
4596;DHT22;2310;49.978;8.742;2023-05-02T19:47:24;13.10;99.90
4596;DHT22;2310;49.978;8.742;2023-05-02T19:51:27;13.10;99.90
4596;DHT22;2310;49.978;8.742;2023-05-02T19:55:29;12.90;99.90
4596;DHT22;2310;49.978;8.742;2023-05-02T19:59:33;12.90;99.90
4596;DHT22;2310;49.978;8.742;2023-05-02T20:03:34;12.90;99.90
4596;DHT22;2310;49.978;8.742;2023-05-02T20:07:36;12.80;99.90
4596;DHT22;2310;49.978;8.742;2023-05-02T20:11:37;12.70;99.90
4596;DHT22;2310;49.978;8.742;2023-05-02T20:15:38;12.70;99.90
4596;DHT22;2310;49.978;8.742;2023-05-02T20:19:39;12.70;99.90
4596;DHT22;2310;49.978;8.742;2023-05-02T20:23:40;12.50;99.90
4596;DHT22;2310;49.978;8.742;2023-05-02T20:27:43;12.50;99.90
4596;DHT22;2310;49.978;8.742;2023-05-02T20:31:44;12.50;99.90
4596;DHT22;2310;49.978;8.742;2023-05-02T20:35:52;12.40;99.90
4596;DHT22;2310;49.978;8.742;2023-05-02T20:39:51;12.50;99.90
4596;DHT22;2310;49.978;8.742;2023-05-02T20:43:52;12.40;99.90
4596;DHT22;2310;49.978;8.742;2023-05-02T20:47:54;12.10;99.90
4596;DHT22;2310;49.978;8.742;2023-05-02T20:51:55;12.10;99.90
4596;DHT22;2310;49.978;8.742;2023-05-02T20:55:56;12.10;99.90
4596;DHT22;2310;49.978;8.742;2023-05-02T20:59:58;12.10;99.90
4596;DHT22;2310;49.978;8.742;2023-05-02T21:03:59;11.80;99.90
4596;DHT22;2310;49.978;8.742;2023-05-02T21:08:00;11.80;99.90
4596;DHT22;2310;49.978;8.742;2023-05-02T21:12:02;11.70;99.90
4596;DHT22;2310;49.978;8.742;2023-05-02T21:16:03;11.60;99.90
4596;DHT22;2310;49.978;8.742;2023-05-02T21:20:06;11.50;99.90
4596;DHT22;2310;49.978;8.742;2023-05-02T21:24:07;11.30;99.90
4596;DHT22;2310;49.978;8.742;2023-05-02T21:28:09;11.30;99.90
4596;DHT22;2310;49.978;8.742;2023-05-02T21:32:11;11.20;99.90
4596;DHT22;2310;49.978;8.742;2023-05-02T21:36:12;11.30;99.90
4596;DHT22;2310;49.978;8.742;2023-05-02T21:40:14;11.30;99.90
4596;DHT22;2310;49.978;8.742;2023-05-02T21:44:16;11.20;99.90
4596;DHT22;2310;49.978;8.742;2023-05-02T21:48:20;11.10;99.90
4596;DHT22;2310;49.978;8.742;2023-05-02T21:52:22;11.00;99.90
4596;DHT22;2310;49.978;8.742;2023-05-02T21:56:23;11.00;99.90
4596;DHT22;2310;49.978;8.742;2023-05-02T22:00:25;10.90;99.90
4596;DHT22;2310;49.978;8.742;2023-05-02T22:04:26;11.00;99.90
4596;DHT22;2310;49.978;8.742;2023-05-02T22:08:27;11.00;99.90
4596;DHT22;2310;49.978;8.742;2023-05-02T22:12:28;11.10;99.90
4596;DHT22;2310;49.978;8.742;2023-05-02T22:16:29;11.00;99.90
4596;DHT22;2310;49.978;8.742;2023-05-02T22:20:30;11.10;99.90
4596;DHT22;2310;49.978;8.742;2023-05-02T22:24:32;10.90;99.90
4596;DHT22;2310;49.978;8.742;2023-05-02T22:28:34;11.00;99.90
4596;DHT22;2310;49.978;8.742;2023-05-02T22:32:35;10.90;99.90
4596;DHT22;2310;49.978;8.742;2023-05-02T22:36:36;10.80;99.90
4596;DHT22;2310;49.978;8.742;2023-05-02T22:40:37;10.80;99.90
4596;DHT22;2310;49.978;8.742;2023-05-02T22:44:38;10.80;99.90
4596;DHT22;2310;49.978;8.742;2023-05-02T22:48:41;10.90;99.90
4596;DHT22;2310;49.978;8.742;2023-05-02T22:52:43;10.90;99.90
4596;DHT22;2310;49.978;8.742;2023-05-02T22:56:44;10.80;99.90
4596;DHT22;2310;49.978;8.742;2023-05-02T23:00:45;10.70;99.90
4596;DHT22;2310;49.978;8.742;2023-05-02T23:04:46;10.60;99.90
4596;DHT22;2310;49.978;8.742;2023-05-02T23:08:48;10.60;99.90
4596;DHT22;2310;49.978;8.742;2023-05-02T23:12:49;10.50;99.90
4596;DHT22;2310;49.978;8.742;2023-05-02T23:16:50;10.50;99.90
4596;DHT22;2310;49.978;8.742;2023-05-02T23:20:53;10.50;99.90
4596;DHT22;2310;49.978;8.742;2023-05-02T23:24:54;10.50;99.90
4596;DHT22;2310;49.978;8.742;2023-05-02T23:28:55;10.40;99.90
4596;DHT22;2310;49.978;8.742;2023-05-02T23:32:59;10.30;99.90
4596;DHT22;2310;49.978;8.742;2023-05-02T23:37:00;10.20;99.90
4596;DHT22;2310;49.978;8.742;2023-05-02T23:41:02;10.10;99.90
4596;DHT22;2310;49.978;8.742;2023-05-02T23:45:03;10.00;99.90
4596;DHT22;2310;49.978;8.742;2023-05-02T23:49:05;10.00;99.90
4596;DHT22;2310;49.978;8.742;2023-05-02T23:53:06;9.90;99.90
4596;DHT22;2310;49.978;8.742;2023-05-02T23:57:07;9.80;99.90
